sensor_id;sensor_type;location;lat;lon;timestamp;temperature;humidity
48836;DHT22;62581;47.342;7.908;2024-02-28T00:01:11;9.70;99.90
48836;DHT22;62581;47.342;7.908;2024-02-28T00:03:38;9.70;99.90
48836;DHT22;62581;47.342;7.908;2024-02-28T00:06:05;9.70;99.90
48836;DHT22;62581;47.342;7.908;2024-02-28T00:08:32;9.70;99.90
48836;DHT22;62581;47.342;7.908;2024-02-28T00:10:59;9.60;99.90
48836;DHT22;62581;47.342;7.908;2024-02-28T00:13:26;9.60;99.90
48836;DHT22;62581;47.342;7.908;2024-02-28T00:15:54;9.60;99.90
48836;DHT22;62581;47.342;7.908;2024-02-28T00:18:21;9.60;99.90
48836;DHT22;62581;47.342;7.908;2024-02-28T00:20:49;9.60;99.90
48836;DHT22;62581;47.342;7.908;2024-02-28T00:23:16;9.60;99.90
48836;DHT22;62581;47.342;7.908;2024-02-28T00:25:43;9.60;99.90
48836;DHT22;62581;47.342;7.908;2024-02-28T00:28:10;9.60;99.90
48836;DHT22;62581;47.342;7.908;2024-02-28T00:30:37;9.60;99.90
48836;DHT22;62581;47.342;7.908;2024-02-28T00:33:05;9.60;99.90
48836;DHT22;62581;47.342;7.908;2024-02-28T00:35:32;9.60;99.90
48836;DHT22;62581;47.342;7.908;2024-02-28T00:37:59;9.60;99.90
48836;DHT22;62581;47.342;7.908;2024-02-28T00:40:26;9.60;99.90
48836;DHT22;62581;47.342;7.908;2024-02-28T00:42:54;9.60;99.90
48836;DHT22;62581;47.342;7.908;2024-02-28T00:45:21;9.60;99.90
48836;DHT22;62581;47.342;7.908;2024-02-28T00:47:48;9.60;99.90
48836;DHT22;62581;47.342;7.908;2024-02-28T00:50:16;9.60;99.90
48836;DHT22;62581;47.342;7.908;2024-02-28T00:52:43;9.50;99.90
48836;DHT22;62581;47.342;7.908;2024-02-28T00:55:10;9.60;99.90
48836;DHT22;62581;47.342;7.908;2024-02-28T00:57:37;9.50;99.90
48836;DHT22;62581;47.342;7.908;2024-02-28T01:00:05;9.50;99.90
48836;DHT22;62581;47.342;7.908;2024-02-28T01:02:33;9.60;99.90
48836;DHT22;62581;47.342;7.908;2024-02-28T01:05:00;9.60;99.90
48836;DHT22;62581;47.342;7.908;2024-02-28T01:07:28;9.60;99.90
48836;DHT22;62581;47.342;7.908;2024-02-28T01:09:55;9.50;99.90
48836;DHT22;62581;47.342;7.908;2024-02-28T01:12:22;9.60;99.90
48836;DHT22;62581;47.342;7.908;2024-02-28T01:14:49;9.60;99.90
48836;DHT22;62581;47.342;7.908;2024-02-28T01:17:16;9.60;99.90
48836;DHT22;62581;47.342;7.908;2024-02-28T01:19:43;9.60;99.90
48836;DHT22;62581;47.342;7.908;2024-02-28T01:22:10;9.50;99.90
48836;DHT22;62581;47.342;7.908;2024-02-28T01:26:22;9.50;99.90
48836;DHT22;62581;47.342;7.908;2024-02-28T01:28:50;9.50;99.90
48836;DHT22;62581;47.342;7.908;2024-02-28T01:31:17;9.50;99.90
48836;DHT22;62581;47.342;7.908;2024-02-28T01:33:44;9.50;99.90
48836;DHT22;62581;47.342;7.908;2024-02-28T01:36:11;9.50;99.90
48836;DHT22;62581;47.342;7.908;2024-02-28T01:38:38;9.50;99.90
48836;DHT22;62581;47.342;7.908;2024-02-28T01:41:05;9.50;99.90
48836;DHT22;62581;47.342;7.908;2024-02-28T01:43:34;9.50;99.90
48836;DHT22;62581;47.342;7.908;2024-02-28T01:46:04;9.40;99.90
48836;DHT22;62581;47.342;7.908;2024-02-28T01:48:32;9.40;99.90
48836;DHT22;62581;47.342;7.908;2024-02-28T01:50:59;9.40;99.90
48836;DHT22;62581;47.342;7.908;2024-02-28T01:53:26;9.40;99.90
48836;DHT22;62581;47.342;7.908;2024-02-28T01:55:53;9.40;99.90
48836;DHT22;62581;47.342;7.908;2024-02-28T01:58:23;9.40;99.90
48836;DHT22;62581;47.342;7.908;2024-02-28T02:00:52;9.40;99.90
48836;DHT22;62581;47.342;7.908;2024-02-28T02:03:20;9.40;99.90
48836;DHT22;62581;47.342;7.908;2024-02-28T02:05:47;9.40;99.90
48836;DHT22;62581;47.342;7.908;2024-02-28T02:08:14;9.40;99.90
48836;DHT22;62581;47.342;7.908;2024-02-28T02:10:41;9.40;99.90
48836;DHT22;62581;47.342;7.908;2024-02-28T02:13:08;9.40;99.90
48836;DHT22;62581;47.342;7.908;2024-02-28T02:15:35;9.40;99.90
48836;DHT22;62581;47.342;7.908;2024-02-28T02:18:04;9.30;99.90
48836;DHT22;62581;47.342;7.908;2024-02-28T02:20:32;9.40;99.90
48836;DHT22;62581;47.342;7.908;2024-02-28T02:23:00;9.40;99.90
48836;DHT22;62581;47.342;7.908;2024-02-28T02:25:27;9.30;99.90
48836;DHT22;62581;47.342;7.908;2024-02-28T02:27:54;9.30;99.90
48836;DHT22;62581;47.342;7.908;2024-02-28T02:30:21;9.40;99.90
48836;DHT22;62581;47.342;7.908;2024-02-28T02:32:48;9.40;99.90
48836;DHT22;62581;47.342;7.908;2024-02-28T02:35:15;9.40;99.90
48836;DHT22;62581;47.342;7.908;2024-02-28T02:37:43;9.40;99.90
48836;DHT22;62581;47.342;7.908;2024-02-28T02:40:15;9.40;99.90
48836;DHT22;62581;47.342;7.908;2024-02-28T02:42:42;9.40;99.90
48836;DHT22;62581;47.342;7.908;2024-02-28T02:45:09;9.40;99.90
48836;DHT22;62581;47.342;7.908;2024-02-28T02:47:36;9.40;99.90
48836;DHT22;62581;47.342;7.908;2024-02-28T02:50:03;9.30;99.90
48836;DHT22;62581;47.342;7.908;2024-02-28T02:52:30;9.30;99.90
48836;DHT22;62581;47.342;7.908;2024-02-28T02:54:57;9.30;99.90
48836;DHT22;62581;47.342;7.908;2024-02-28T02:57:25;9.30;99.90
48836;DHT22;62581;47.342;7.908;2024-02-28T02:59:52;9.30;99.90
48836;DHT22;62581;47.342;7.908;2024-02-28T03:02:19;9.30;99.90
48836;DHT22;62581;47.342;7.908;2024-02-28T03:04:46;9.30;99.90
48836;DHT22;62581;47.342;7.908;2024-02-28T03:07:13;9.30;99.90
48836;DHT22;62581;47.342;7.908;2024-02-28T03:09:40;9.30;99.90
48836;DHT22;62581;47.342;7.908;2024-02-28T03:12:08;9.30;99.90
48836;DHT22;62581;47.342;7.908;2024-02-28T03:14:36;9.40;99.90
48836;DHT22;62581;47.342;7.908;2024-02-28T03:17:03;9.30;99.90
48836;DHT22;62581;47.342;7.908;2024-02-28T03:19:30;9.30;99.90
48836;DHT22;62581;47.342;7.908;2024-02-28T03:21:57;9.30;99.90
48836;DHT22;62581;47.342;7.908;2024-02-28T03:24:24;9.30;99.90
48836;DHT22;62581;47.342;7.908;2024-02-28T03:26:50;9.30;99.90
48836;DHT22;62581;47.342;7.908;2024-02-28T03:29:17;9.30;99.90
48836;DHT22;62581;47.342;7.908;2024-02-28T03:31:46;9.30;99.90
48836;DHT22;62581;47.342;7.908;2024-02-28T03:34:13;9.30;99.90
48836;DHT22;62581;47.342;7.908;2024-02-28T03:36:40;9.30;99.90
48836;DHT22;62581;47.342;7.908;2024-02-28T03:39:07;9.30;99.90
48836;DHT22;62581;47.342;7.908;2024-02-28T03:41:35;9.30;99.90
48836;DHT22;62581;47.342;7.908;2024-02-28T03:44:02;9.30;99.90
48836;DHT22;62581;47.342;7.908;2024-02-28T03:46:29;9.30;99.90
48836;DHT22;62581;47.342;7.908;2024-02-28T03:48:57;9.30;99.90
48836;DHT22;62581;47.342;7.908;2024-02-28T03:51:24;9.30;99.90
48836;DHT22;62581;47.342;7.908;2024-02-28T03:53:51;9.30;99.90
48836;DHT22;62581;47.342;7.908;2024-02-28T03:56:22;9.30;99.90
48836;DHT22;62581;47.342;7.908;2024-02-28T03:58:50;9.30;99.90
48836;DHT22;62581;47.342;7.908;2024-02-28T04:01:18;9.30;99.90
48836;DHT22;62581;47.342;7.908;2024-02-28T04:03:45;9.30;99.90
48836;DHT22;62581;47.342;7.908;2024-02-28T04:06:13;9.30;99.90
48836;DHT22;62581;47.342;7.908;2024-02-28T04:08:40;9.30;99.90
48836;DHT22;62581;47.342;7.908;2024-02-28T04:11:07;9.30;99.90
48836;DHT22;62581;47.342;7.908;2024-02-28T04:13:34;9.20;99.90
48836;DHT22;62581;47.342;7.908;2024-02-28T04:16:02;9.20;99.90
48836;DHT22;62581;47.342;7.908;2024-02-28T04:18:29;9.20;99.90
48836;DHT22;62581;47.342;7.908;2024-02-28T04:20:56;9.20;99.90
48836;DHT22;62581;47.342;7.908;2024-02-28T04:23:25;9.20;99.90
48836;DHT22;62581;47.342;7.908;2024-02-28T04:25:52;9.10;99.90
48836;DHT22;62581;47.342;7.908;2024-02-28T04:28:19;9.10;99.90
48836;DHT22;62581;47.342;7.908;2024-02-28T04:30:46;9.10;99.90
48836;DHT22;62581;47.342;7.908;2024-02-28T04:33:12;9.10;99.90
48836;DHT22;62581;47.342;7.908;2024-02-28T04:35:39;9.00;99.90
48836;DHT22;62581;47.342;7.908;2024-02-28T04:38:06;9.00;99.90
48836;DHT22;62581;47.342;7.908;2024-02-28T04:40:35;9.00;99.90
48836;DHT22;62581;47.342;7.908;2024-02-28T04:43:02;9.00;99.90
48836;DHT22;62581;47.342;7.908;2024-02-28T04:45:29;9.00;99.90
48836;DHT22;62581;47.342;7.908;2024-02-28T04:47:56;8.90;99.90
48836;DHT22;62581;47.342;7.908;2024-02-28T04:50:23;8.90;99.90
48836;DHT22;62581;47.342;7.908;2024-02-28T04:52:50;8.90;99.90
48836;DHT22;62581;47.342;7.908;2024-02-28T04:55:17;8.90;99.90
48836;DHT22;62581;47.342;7.908;2024-02-28T04:57:46;8.90;99.90
48836;DHT22;62581;47.342;7.908;2024-02-28T05:00:13;8.80;99.90
48836;DHT22;62581;47.342;7.908;2024-02-28T05:02:40;8.80;99.90
48836;DHT22;62581;47.342;7.908;2024-02-28T05:05:07;8.80;99.90
48836;DHT22;62581;47.342;7.908;2024-02-28T05:07:34;8.80;99.90
48836;DHT22;62581;47.342;7.908;2024-02-28T05:10:01;8.90;99.90
48836;DHT22;62581;47.342;7.908;2024-02-28T05:12:28;8.80;99.90
48836;DHT22;62581;47.342;7.908;2024-02-28T05:14:56;8.80;99.90
48836;DHT22;62581;47.342;7.908;2024-02-28T05:17:23;8.80;99.90
48836;DHT22;62581;47.342;7.908;2024-02-28T05:19:50;8.80;99.90
48836;DHT22;62581;47.342;7.908;2024-02-28T05:22:17;8.80;99.90
48836;DHT22;62581;47.342;7.908;2024-02-28T05:24:45;8.70;99.90
48836;DHT22;62581;47.342;7.908;2024-02-28T05:27:12;8.70;99.90
48836;DHT22;62581;47.342;7.908;2024-02-28T05:29:39;8.70;99.90
48836;DHT22;62581;47.342;7.908;2024-02-28T05:32:09;8.70;99.90
48836;DHT22;62581;47.342;7.908;2024-02-28T05:34:37;8.60;99.90
48836;DHT22;62581;47.342;7.908;2024-02-28T05:37:04;8.60;99.90
48836;DHT22;62581;47.342;7.908;2024-02-28T05:39:31;8.60;99.90
48836;DHT22;62581;47.342;7.908;2024-02-28T05:41:58;8.60;99.90
48836;DHT22;62581;47.342;7.908;2024-02-28T05:44:24;8.60;99.90
48836;DHT22;62581;47.342;7.908;2024-02-28T05:46:51;8.50;99.90
48836;DHT22;62581;47.342;7.908;2024-02-28T05:49:20;8.50;99.90
48836;DHT22;62581;47.342;7.908;2024-02-28T05:51:48;8.50;99.90
48836;DHT22;62581;47.342;7.908;2024-02-28T05:54:15;8.50;99.90
48836;DHT22;62581;47.342;7.908;2024-02-28T05:56:42;8.40;99.90
48836;DHT22;62581;47.342;7.908;2024-02-28T05:59:09;8.40;99.90
48836;DHT22;62581;47.342;7.908;2024-02-28T06:01:36;8.40;99.90
48836;DHT22;62581;47.342;7.908;2024-02-28T06:04:03;8.50;99.90
48836;DHT22;62581;47.342;7.908;2024-02-28T06:06:32;8.50;99.90
48836;DHT22;62581;47.342;7.908;2024-02-28T06:08:59;8.50;99.90
48836;DHT22;62581;47.342;7.908;2024-02-28T06:11:25;8.50;99.90
48836;DHT22;62581;47.342;7.908;2024-02-28T06:13:52;8.40;99.90
48836;DHT22;62581;47.342;7.908;2024-02-28T06:16:19;8.50;99.90
48836;DHT22;62581;47.342;7.908;2024-02-28T06:18:46;8.40;99.90
48836;DHT22;62581;47.342;7.908;2024-02-28T06:21:14;8.40;99.90
48836;DHT22;62581;47.342;7.908;2024-02-28T06:23:42;8.40;99.90
48836;DHT22;62581;47.342;7.908;2024-02-28T06:26:09;8.30;99.90
48836;DHT22;62581;47.342;7.908;2024-02-28T06:28:42;8.30;99.90
48836;DHT22;62581;47.342;7.908;2024-02-28T06:31:14;8.30;99.90
48836;DHT22;62581;47.342;7.908;2024-02-28T06:33:42;8.30;99.90
48836;DHT22;62581;47.342;7.908;2024-02-28T06:36:09;8.30;99.90
48836;DHT22;62581;47.342;7.908;2024-02-28T06:38:36;8.30;99.90
48836;DHT22;62581;47.342;7.908;2024-02-28T06:41:04;8.40;99.90
48836;DHT22;62581;47.342;7.908;2024-02-28T06:43:33;8.40;99.90
48836;DHT22;62581;47.342;7.908;2024-02-28T06:46:01;8.40;99.90
48836;DHT22;62581;47.342;7.908;2024-02-28T06:48:28;8.40;99.90
48836;DHT22;62581;47.342;7.908;2024-02-28T06:50:55;8.30;99.90
48836;DHT22;62581;47.342;7.908;2024-02-28T06:53:23;8.10;99.90
48836;DHT22;62581;47.342;7.908;2024-02-28T06:55:50;8.20;99.90
48836;DHT22;62581;47.342;7.908;2024-02-28T06:58:18;8.20;99.90
48836;DHT22;62581;47.342;7.908;2024-02-28T07:00:45;8.20;99.90
48836;DHT22;62581;47.342;7.908;2024-02-28T07:03:12;8.30;99.90
48836;DHT22;62581;47.342;7.908;2024-02-28T07:05:39;8.30;99.90
48836;DHT22;62581;47.342;7.908;2024-02-28T07:08:06;8.40;99.90
48836;DHT22;62581;47.342;7.908;2024-02-28T07:10:36;8.40;99.90
48836;DHT22;62581;47.342;7.908;2024-02-28T07:13:04;8.40;99.90
48836;DHT22;62581;47.342;7.908;2024-02-28T07:15:32;8.40;99.90
48836;DHT22;62581;47.342;7.908;2024-02-28T07:17:59;8.40;99.90
48836;DHT22;62581;47.342;7.908;2024-02-28T07:20:26;8.30;99.90
48836;DHT22;62581;47.342;7.908;2024-02-28T07:22:52;8.40;99.90
48836;DHT22;62581;47.342;7.908;2024-02-28T07:25:19;8.40;99.90
48836;DHT22;62581;47.342;7.908;2024-02-28T07:27:47;8.40;99.90
48836;DHT22;62581;47.342;7.908;2024-02-28T07:30:15;8.50;99.90
48836;DHT22;62581;47.342;7.908;2024-02-28T07:32:43;8.60;99.90
48836;DHT22;62581;47.342;7.908;2024-02-28T07:35:12;8.70;99.90
48836;DHT22;62581;47.342;7.908;2024-02-28T07:37:39;8.70;99.90
48836;DHT22;62581;47.342;7.908;2024-02-28T07:40:07;8.80;99.90
48836;DHT22;62581;47.342;7.908;2024-02-28T07:42:34;8.70;99.90
48836;DHT22;62581;47.342;7.908;2024-02-28T07:45:01;8.70;99.90
48836;DHT22;62581;47.342;7.908;2024-02-28T07:47:28;8.70;99.90
48836;DHT22;62581;47.342;7.908;2024-02-28T07:49:58;8.60;99.90
48836;DHT22;62581;47.342;7.908;2024-02-28T07:52:24;8.70;99.90
48836;DHT22;62581;47.342;7.908;2024-02-28T07:54:51;8.80;99.90
48836;DHT22;62581;47.342;7.908;2024-02-28T07:57:18;8.80;99.90
48836;DHT22;62581;47.342;7.908;2024-02-28T07:59:45;8.90;99.90
48836;DHT22;62581;47.342;7.908;2024-02-28T08:02:12;9.00;99.90
48836;DHT22;62581;47.342;7.908;2024-02-28T08:04:39;9.10;99.90
48836;DHT22;62581;47.342;7.908;2024-02-28T08:07:08;9.10;99.90
48836;DHT22;62581;47.342;7.908;2024-02-28T08:09:35;9.30;99.90
48836;DHT22;62581;47.342;7.908;2024-02-28T08:12:02;9.20;99.90
48836;DHT22;62581;47.342;7.908;2024-02-28T08:14:29;9.20;99.90
48836;DHT22;62581;47.342;7.908;2024-02-28T08:16:56;9.30;99.90
48836;DHT22;62581;47.342;7.908;2024-02-28T08:19:23;9.30;99.90
48836;DHT22;62581;47.342;7.908;2024-02-28T08:21:49;9.40;99.90
48836;DHT22;62581;47.342;7.908;2024-02-28T08:24:18;9.50;99.90
48836;DHT22;62581;47.342;7.908;2024-02-28T08:26:45;9.60;99.90
48836;DHT22;62581;47.342;7.908;2024-02-28T08:29:12;9.70;99.90
48836;DHT22;62581;47.342;7.908;2024-02-28T08:31:43;9.70;99.90
48836;DHT22;62581;47.342;7.908;2024-02-28T08:34:10;9.70;99.90
48836;DHT22;62581;47.342;7.908;2024-02-28T08:36:37;9.70;99.90
48836;DHT22;62581;47.342;7.908;2024-02-28T08:39:04;9.70;99.90
48836;DHT22;62581;47.342;7.908;2024-02-28T08:41:36;9.70;99.90
48836;DHT22;62581;47.342;7.908;2024-02-28T08:44:03;9.80;99.90
48836;DHT22;62581;47.342;7.908;2024-02-28T08:46:30;9.90;99.90
48836;DHT22;62581;47.342;7.908;2024-02-28T08:48:57;9.90;99.90
48836;DHT22;62581;47.342;7.908;2024-02-28T08:51:24;9.90;99.90
48836;DHT22;62581;47.342;7.908;2024-02-28T08:53:51;10.00;99.90
48836;DHT22;62581;47.342;7.908;2024-02-28T08:56:19;10.00;99.90
48836;DHT22;62581;47.342;7.908;2024-02-28T08:58:48;10.00;99.90
48836;DHT22;62581;47.342;7.908;2024-02-28T09:01:15;10.10;99.90
48836;DHT22;62581;47.342;7.908;2024-02-28T09:03:42;10.20;99.90
48836;DHT22;62581;47.342;7.908;2024-02-28T09:06:09;10.20;99.90
48836;DHT22;62581;47.342;7.908;2024-02-28T09:08:36;10.00;99.90
48836;DHT22;62581;47.342;7.908;2024-02-28T09:11:03;10.10;99.90
48836;DHT22;62581;47.342;7.908;2024-02-28T09:13:30;9.90;99.90
48836;DHT22;62581;47.342;7.908;2024-02-28T09:15:59;10.00;99.90
48836;DHT22;62581;47.342;7.908;2024-02-28T09:18:26;10.00;99.90
48836;DHT22;62581;47.342;7.908;2024-02-28T09:20:52;10.00;99.90
48836;DHT22;62581;47.342;7.908;2024-02-28T09:23:20;10.20;99.90
48836;DHT22;62581;47.342;7.908;2024-02-28T09:25:46;10.40;99.90
48836;DHT22;62581;47.342;7.908;2024-02-28T09:28:13;10.50;99.90
48836;DHT22;62581;47.342;7.908;2024-02-28T09:30:41;10.50;99.90
48836;DHT22;62581;47.342;7.908;2024-02-28T09:33:10;10.70;99.90
48836;DHT22;62581;47.342;7.908;2024-02-28T09:35:37;10.60;99.90
48836;DHT22;62581;47.342;7.908;2024-02-28T09:38:04;10.70;99.90
48836;DHT22;62581;47.342;7.908;2024-02-28T09:40:31;10.60;99.90
48836;DHT22;62581;47.342;7.908;2024-02-28T09:43:01;10.70;99.90
48836;DHT22;62581;47.342;7.908;2024-02-28T09:45:29;10.60;99.90
48836;DHT22;62581;47.342;7.908;2024-02-28T09:47:58;10.70;99.90
48836;DHT22;62581;47.342;7.908;2024-02-28T09:50:27;10.80;99.90
48836;DHT22;62581;47.342;7.908;2024-02-28T09:52:54;10.80;99.90
48836;DHT22;62581;47.342;7.908;2024-02-28T09:55:21;11.00;99.90
48836;DHT22;62581;47.342;7.908;2024-02-28T09:57:49;11.10;99.90
48836;DHT22;62581;47.342;7.908;2024-02-28T10:00:19;11.40;99.90
48836;DHT22;62581;47.342;7.908;2024-02-28T10:02:47;11.50;99.90
48836;DHT22;62581;47.342;7.908;2024-02-28T10:05:15;11.70;99.90
48836;DHT22;62581;47.342;7.908;2024-02-28T10:07:46;12.00;99.90
48836;DHT22;62581;47.342;7.908;2024-02-28T10:10:13;12.30;99.90
48836;DHT22;62581;47.342;7.908;2024-02-28T10:12:42;12.50;99.90
48836;DHT22;62581;47.342;7.908;2024-02-28T10:15:10;12.70;99.90
48836;DHT22;62581;47.342;7.908;2024-02-28T10:17:37;12.70;99.90
48836;DHT22;62581;47.342;7.908;2024-02-28T10:20:05;12.90;99.90
48836;DHT22;62581;47.342;7.908;2024-02-28T10:22:35;12.90;99.90
48836;DHT22;62581;47.342;7.908;2024-02-28T10:25:04;12.80;99.90
48836;DHT22;62581;47.342;7.908;2024-02-28T10:27:34;12.70;99.90
48836;DHT22;62581;47.342;7.908;2024-02-28T10:30:02;12.60;99.90
48836;DHT22;62581;47.342;7.908;2024-02-28T10:32:30;12.50;99.90
48836;DHT22;62581;47.342;7.908;2024-02-28T10:34:59;12.50;99.90
48836;DHT22;62581;47.342;7.908;2024-02-28T10:37:29;12.50;99.90
48836;DHT22;62581;47.342;7.908;2024-02-28T10:39:57;12.60;99.90
48836;DHT22;62581;47.342;7.908;2024-02-28T10:42:30;12.60;99.90
48836;DHT22;62581;47.342;7.908;2024-02-28T10:44:58;12.70;99.90
48836;DHT22;62581;47.342;7.908;2024-02-28T10:47:27;12.80;99.90
48836;DHT22;62581;47.342;7.908;2024-02-28T10:49:55;12.90;99.90
48836;DHT22;62581;47.342;7.908;2024-02-28T10:52:22;12.90;99.90
48836;DHT22;62581;47.342;7.908;2024-02-28T10:54:54;12.70;99.90
48836;DHT22;62581;47.342;7.908;2024-02-28T10:57:22;12.80;99.90
48836;DHT22;62581;47.342;7.908;2024-02-28T10:59:53;12.70;99.90
48836;DHT22;62581;47.342;7.908;2024-02-28T11:02:20;12.40;99.90
48836;DHT22;62581;47.342;7.908;2024-02-28T11:04:51;12.40;99.90
48836;DHT22;62581;47.342;7.908;2024-02-28T11:07:19;12.50;99.90
48836;DHT22;62581;47.342;7.908;2024-02-28T11:09:47;12.40;99.90
48836;DHT22;62581;47.342;7.908;2024-02-28T11:12:24;12.60;99.90
48836;DHT22;62581;47.342;7.908;2024-02-28T11:14:58;12.90;99.90
48836;DHT22;62581;47.342;7.908;2024-02-28T11:17:26;13.10;99.90
48836;DHT22;62581;47.342;7.908;2024-02-28T11:19:54;12.90;99.90
48836;DHT22;62581;47.342;7.908;2024-02-28T11:22:21;12.80;99.90
48836;DHT22;62581;47.342;7.908;2024-02-28T11:24:49;12.70;99.90
48836;DHT22;62581;47.342;7.908;2024-02-28T11:27:16;12.70;99.90
48836;DHT22;62581;47.342;7.908;2024-02-28T11:29:43;12.40;99.90
48836;DHT22;62581;47.342;7.908;2024-02-28T11:32:14;12.50;99.90
48836;DHT22;62581;47.342;7.908;2024-02-28T11:34:41;12.80;99.90
48836;DHT22;62581;47.342;7.908;2024-02-28T11:37:09;12.80;99.90
48836;DHT22;62581;47.342;7.908;2024-02-28T11:39:36;12.40;99.90
48836;DHT22;62581;47.342;7.908;2024-02-28T11:42:11;11.80;99.90
48836;DHT22;62581;47.342;7.908;2024-02-28T11:44:39;11.20;99.90
48836;DHT22;62581;47.342;7.908;2024-02-28T11:47:08;11.20;99.90
48836;DHT22;62581;47.342;7.908;2024-02-28T11:49:37;11.10;99.90
48836;DHT22;62581;47.342;7.908;2024-02-28T11:52:04;11.10;99.90
48836;DHT22;62581;47.342;7.908;2024-02-28T11:54:31;11.10;99.90
48836;DHT22;62581;47.342;7.908;2024-02-28T11:56:58;10.90;99.90
48836;DHT22;62581;47.342;7.908;2024-02-28T11:59:25;10.90;99.90
48836;DHT22;62581;47.342;7.908;2024-02-28T12:01:52;10.80;99.90
48836;DHT22;62581;47.342;7.908;2024-02-28T12:04:24;10.90;99.90
48836;DHT22;62581;47.342;7.908;2024-02-28T12:06:53;10.90;99.90
48836;DHT22;62581;47.342;7.908;2024-02-28T12:09:19;10.90;99.90
48836;DHT22;62581;47.342;7.908;2024-02-28T12:11:46;11.00;99.90
48836;DHT22;62581;47.342;7.908;2024-02-28T12:14:13;11.10;99.90
48836;DHT22;62581;47.342;7.908;2024-02-28T12:16:40;11.10;99.90
48836;DHT22;62581;47.342;7.908;2024-02-28T12:19:07;11.10;99.90
48836;DHT22;62581;47.342;7.908;2024-02-28T12:21:35;11.00;99.90
48836;DHT22;62581;47.342;7.908;2024-02-28T12:24:04;11.00;99.90
48836;DHT22;62581;47.342;7.908;2024-02-28T12:26:34;10.90;99.90
48836;DHT22;62581;47.342;7.908;2024-02-28T12:29:01;11.10;99.90
48836;DHT22;62581;47.342;7.908;2024-02-28T12:31:28;10.90;99.90
48836;DHT22;62581;47.342;7.908;2024-02-28T12:33:55;10.80;99.90
48836;DHT22;62581;47.342;7.908;2024-02-28T12:36:22;11.00;99.90
48836;DHT22;62581;47.342;7.908;2024-02-28T12:38:50;10.90;99.90
48836;DHT22;62581;47.342;7.908;2024-02-28T12:41:18;10.70;99.90
48836;DHT22;62581;47.342;7.908;2024-02-28T12:43:45;11.10;99.90
48836;DHT22;62581;47.342;7.908;2024-02-28T12:46:12;11.40;99.90
48836;DHT22;62581;47.342;7.908;2024-02-28T12:48:39;11.60;99.90
48836;DHT22;62581;47.342;7.908;2024-02-28T12:51:09;11.70;99.90
48836;DHT22;62581;47.342;7.908;2024-02-28T12:53:37;12.00;99.90
48836;DHT22;62581;47.342;7.908;2024-02-28T12:56:04;12.10;99.90
48836;DHT22;62581;47.342;7.908;2024-02-28T12:58:32;12.00;99.90
48836;DHT22;62581;47.342;7.908;2024-02-28T13:00:59;12.20;99.90
48836;DHT22;62581;47.342;7.908;2024-02-28T13:03:26;12.30;99.90
48836;DHT22;62581;47.342;7.908;2024-02-28T13:05:53;12.20;99.90
48836;DHT22;62581;47.342;7.908;2024-02-28T13:08:20;12.30;99.90
48836;DHT22;62581;47.342;7.908;2024-02-28T13:10:47;12.10;99.90
48836;DHT22;62581;47.342;7.908;2024-02-28T13:13:14;12.20;99.90
48836;DHT22;62581;47.342;7.908;2024-02-28T13:15:43;12.00;99.90
48836;DHT22;62581;47.342;7.908;2024-02-28T13:18:11;11.90;99.90
48836;DHT22;62581;47.342;7.908;2024-02-28T13:20:38;11.80;99.90
48836;DHT22;62581;47.342;7.908;2024-02-28T13:23:06;11.60;99.90
48836;DHT22;62581;47.342;7.908;2024-02-28T13:25:33;11.50;99.90
48836;DHT22;62581;47.342;7.908;2024-02-28T13:28:00;11.50;99.90
48836;DHT22;62581;47.342;7.908;2024-02-28T13:30:26;11.60;99.90
48836;DHT22;62581;47.342;7.908;2024-02-28T13:32:55;11.60;99.90
48836;DHT22;62581;47.342;7.908;2024-02-28T13:35:22;11.70;99.90
48836;DHT22;62581;47.342;7.908;2024-02-28T13:37:49;11.80;99.90
48836;DHT22;62581;47.342;7.908;2024-02-28T13:40:16;11.90;99.90
48836;DHT22;62581;47.342;7.908;2024-02-28T13:42:42;12.00;99.90
48836;DHT22;62581;47.342;7.908;2024-02-28T13:45:11;12.20;99.90
48836;DHT22;62581;47.342;7.908;2024-02-28T13:47:38;12.30;99.90
48836;DHT22;62581;47.342;7.908;2024-02-28T13:50:07;12.30;99.90
48836;DHT22;62581;47.342;7.908;2024-02-28T13:52:35;12.50;99.90
48836;DHT22;62581;47.342;7.908;2024-02-28T13:55:02;12.60;99.90
48836;DHT22;62581;47.342;7.908;2024-02-28T13:57:29;12.70;99.90
48836;DHT22;62581;47.342;7.908;2024-02-28T13:59:56;13.00;99.90
48836;DHT22;62581;47.342;7.908;2024-02-28T14:02:23;13.10;99.90
48836;DHT22;62581;47.342;7.908;2024-02-28T14:04:51;13.20;99.90
48836;DHT22;62581;47.342;7.908;2024-02-28T14:07:20;13.30;99.90
48836;DHT22;62581;47.342;7.908;2024-02-28T14:09:47;13.30;99.90
48836;DHT22;62581;47.342;7.908;2024-02-28T14:12:14;13.30;99.90
48836;DHT22;62581;47.342;7.908;2024-02-28T14:14:41;13.30;99.90
48836;DHT22;62581;47.342;7.908;2024-02-28T14:17:08;13.20;99.90
48836;DHT22;62581;47.342;7.908;2024-02-28T14:19:35;13.00;99.90
48836;DHT22;62581;47.342;7.908;2024-02-28T14:22:03;13.00;99.90
48836;DHT22;62581;47.342;7.908;2024-02-28T14:24:31;13.00;99.90
48836;DHT22;62581;47.342;7.908;2024-02-28T14:26:58;12.70;99.90
48836;DHT22;62581;47.342;7.908;2024-02-28T14:29:25;12.80;99.90
48836;DHT22;62581;47.342;7.908;2024-02-28T14:31:52;12.80;99.90
48836;DHT22;62581;47.342;7.908;2024-02-28T14:34:19;12.80;99.90
48836;DHT22;62581;47.342;7.908;2024-02-28T14:36:47;12.90;99.90
48836;DHT22;62581;47.342;7.908;2024-02-28T14:39:15;12.90;99.90
48836;DHT22;62581;47.342;7.908;2024-02-28T14:41:44;13.00;99.90
48836;DHT22;62581;47.342;7.908;2024-02-28T14:44:11;13.00;99.90
48836;DHT22;62581;47.342;7.908;2024-02-28T14:46:38;13.10;99.90
48836;DHT22;62581;47.342;7.908;2024-02-28T14:49:06;13.10;99.90
48836;DHT22;62581;47.342;7.908;2024-02-28T14:51:33;13.10;99.90
48836;DHT22;62581;47.342;7.908;2024-02-28T14:54:00;13.10;99.90
48836;DHT22;62581;47.342;7.908;2024-02-28T14:56:27;13.10;99.90
48836;DHT22;62581;47.342;7.908;2024-02-28T14:58:56;13.10;99.90
48836;DHT22;62581;47.342;7.908;2024-02-28T15:01:23;13.10;99.90
48836;DHT22;62581;47.342;7.908;2024-02-28T15:03:50;13.10;99.90
48836;DHT22;62581;47.342;7.908;2024-02-28T15:06:17;13.00;99.90
48836;DHT22;62581;47.342;7.908;2024-02-28T15:08:44;12.90;99.90
48836;DHT22;62581;47.342;7.908;2024-02-28T15:11:11;12.80;99.90
48836;DHT22;62581;47.342;7.908;2024-02-28T15:13:38;12.70;99.90
48836;DHT22;62581;47.342;7.908;2024-02-28T15:16:07;12.60;99.90
48836;DHT22;62581;47.342;7.908;2024-02-28T15:18:33;12.40;99.90
48836;DHT22;62581;47.342;7.908;2024-02-28T15:21:01;12.30;99.90
48836;DHT22;62581;47.342;7.908;2024-02-28T15:23:28;12.30;99.90
48836;DHT22;62581;47.342;7.908;2024-02-28T15:25:56;12.10;99.90
48836;DHT22;62581;47.342;7.908;2024-02-28T15:28:23;11.80;99.90
48836;DHT22;62581;47.342;7.908;2024-02-28T15:30:52;11.80;99.90
48836;DHT22;62581;47.342;7.908;2024-02-28T15:33:20;11.80;99.90
48836;DHT22;62581;47.342;7.908;2024-02-28T15:35:47;11.80;99.90
48836;DHT22;62581;47.342;7.908;2024-02-28T15:38:14;11.70;99.90
48836;DHT22;62581;47.342;7.908;2024-02-28T15:40:41;11.40;99.90
48836;DHT22;62581;47.342;7.908;2024-02-28T15:43:08;11.30;99.90